Time;durP1;ratioP1;P1;durP2;ratioP2;P2;SDS_P1;SDS_P2;PMS_P1;PMS_P2;Temp;Humidity;BMP_temperature;BMP_pressure;BME280_temperature;BME280_humidity;BME280_pressure;Samples;Min_cycle;Max_cycle;Signal;HPM_P1;HPM_P2
2021/12/27 17:04:28;;;;;;;31.67;19.17;;;;;;;-142.75;100.00;76554.53;5062362;28;20368;-66
2021/12/27 17:06:54;;;;;;;34.38;20.77;;;;;;;-142.75;100.00;76562.41;5062724;28;20510;-66
2021/12/27 17:09:19;;;;;;;37.17;21.10;;;;;;;-142.75;100.00;76570.28;5063272;28;20086;-66
2021/12/27 17:11:44;;;;;;;32.10;20.10;;;;;;;-142.75;100.00;76550.59;5061544;28;20586;-66
2021/12/27 17:14:10;;;;;;;36.33;21.38;;;;;;;-142.75;100.00;76550.59;5060970;28;20036;-66
2021/12/27 17:16:35;;;;;;;26.75;17.73;;;;;;;-142.75;100.00;76542.72;5061573;28;20032;-66
2021/12/27 17:19:01;;;;;;;29.13;18.05;;;;;;;-142.75;100.00;76542.72;5062737;28;20053;-66
2021/12/27 17:21:26;;;;;;;27.45;17.67;;;;;;;-142.75;100.00;76530.91;5060784;28;20051;-66
2021/12/27 17:23:52;;;;;;;28.73;18.08;;;;;;;-142.75;100.00;76513.22;5061748;28;20016;-66
2021/12/27 17:26:18;;;;;;;31.83;19.30;;;;;;;-142.75;100.00;76495.50;5063673;28;20032;-66
2021/12/27 17:28:43;;;;;;;26.27;17.00;;;;;;;-142.75;100.00;76481.72;5063320;28;20477;-66
2021/12/27 17:31:09;;;;;;;24.92;15.52;;;;;;;-142.75;100.00;76473.84;5061216;28;20028;-66
2021/12/27 17:33:35;;;;;;;;;;;;;;;-142.75;100.00;76454.16;5063426;28;20017;-66
2021/12/27 17:36:00;;;;;;;28.27;16.93;;;;;;;-142.75;100.00;76448.25;5062918;28;20523;-66
2021/12/27 17:38:26;;;;;;;25.77;15.02;;;;;;;-142.75;100.00;76448.25;5061771;28;20059;-66
2021/12/27 17:40:51;;;;;;;29.48;17.77;;;;;;;-142.75;100.00;76432.50;5062978;28;20017;-65
2021/12/27 17:43:20;;;;;;;24.40;15.88;;;;;;;-142.75;100.00;76436.44;5063284;28;20033;-66
2021/12/27 17:45:46;;;;;;;22.80;15.00;;;;;;;-142.75;100.00;76450.22;5063216;28;20028;-66
2021/12/27 17:48:12;;;;;;;30.35;16.75;;;;;;;-142.75;100.00;76436.44;5061128;28;20035;-66
2021/12/27 17:50:38;;;;;;;31.25;16.55;;;;;;;-142.75;100.00;76424.63;5062040;28;20035;-66
2021/12/27 17:53:03;;;;;;;29.15;16.25;;;;;;;-142.75;100.00;76414.78;5062515;28;20448;-66
2021/12/27 17:55:30;;;;;;;25.75;15.32;;;;;;;-142.75;100.00;76412.81;5062921;28;20103;-67
2021/12/27 17:57:56;;;;;;;26.35;14.95;;;;;;;-142.75;100.00;76402.97;5062625;28;20024;-66
2021/12/27 18:00:23;;;;;;;24.15;16.23;;;;;;;-142.75;100.00;76387.22;5061681;28;20031;-66
2021/12/27 18:02:48;;;;;;;24.70;15.07;;;;;;;-142.75;100.00;76377.38;5080234;22;20028;-68
2021/12/27 18:05:14;;;;;;;25.35;15.77;;;;;;;-142.75;100.00;76371.47;5042814;28;20021;-68
2021/12/27 18:07:42;;;;;;;23.95;16.15;;;;;;;-142.75;100.00;76365.56;5043570;28;20112;-68
2021/12/27 18:10:08;;;;;;;26.60;16.15;;;;;;;-142.75;100.00;76377.38;5043086;28;20021;-68
2021/12/27 18:12:35;;;;;;;25.13;14.98;;;;;;;-142.75;100.00;76359.66;5043747;28;20071;-68
2021/12/27 18:15:03;;;;;;;23.13;14.75;;;;;;;-142.75;100.00;76357.69;5031616;28;20454;-68
2021/12/27 18:17:29;;;;;;;23.77;14.18;;;;;;;-142.75;100.00;76355.72;5028825;28;20052;-68
2021/12/27 18:19:54;;;;;;;24.90;14.63;;;;;;;-142.75;100.00;76365.56;5029451;28;20049;-68
2021/12/27 18:22:20;;;;;;;22.23;14.57;;;;;;;-142.75;100.00;76361.63;5030101;28;20025;-68
2021/12/27 18:24:45;;;;;;;22.45;13.13;;;;;;;-142.75;100.00;76355.72;5030144;28;20033;-68
2021/12/27 18:27:10;;;;;;;19.73;12.43;;;;;;;-142.75;100.00;76343.94;5035592;28;20033;-68
2021/12/27 18:29:37;;;;;;;20.27;12.50;;;;;;;-142.75;100.00;76334.09;5043660;28;20385;-67
2021/12/27 18:32:07;;;;;;;19.83;11.90;;;;;;;-142.75;100.00;76330.16;5036433;28;20143;-68
2021/12/27 18:34:33;;;;;;;20.70;12.15;;;;;;;-142.75;100.00;76334.09;5029622;28;20052;-68
2021/12/27 18:36:59;;;;;;;18.80;12.30;;;;;;;-142.75;100.00;76326.22;5028229;28;20022;-68
2021/12/27 18:39:25;;;;;;;18.95;12.90;;;;;;;-142.75;100.00;76330.16;5028373;28;20048;-68
2021/12/27 18:41:50;;;;;;;22.77;12.95;;;;;;;-142.75;100.00;76326.22;5029982;28;20119;-68
2021/12/27 18:44:16;;;;;;;24.55;13.10;;;;;;;-142.75;100.00;76330.16;5028381;28;20184;-68
2021/12/27 18:46:42;;;;;;;21.35;13.02;;;;;;;-142.75;100.00;76330.16;5029361;28;20021;-68
2021/12/27 18:49:07;;;;;;;21.90;12.38;;;;;;;-142.75;100.00;76314.41;5028343;28;20124;-68
2021/12/27 18:51:33;;;;;;;19.52;12.32;;;;;;;-142.75;100.00;76324.25;5028774;28;20033;-68
2021/12/27 18:53:58;;;;;;;20.50;12.10;;;;;;;-142.75;100.00;76328.19;5029656;28;20021;-68
2021/12/27 18:56:24;;;;;;;18.65;11.93;;;;;;;-142.75;100.00;76326.22;5027971;28;20037;-67
2021/12/27 18:58:50;;;;;;;20.77;12.80;;;;;;;-142.75;100.00;76326.22;5029307;28;20517;-67
2021/12/27 19:01:16;;;;;;;19.33;11.95;;;;;;;-142.75;100.00;76310.47;5028201;28;20026;-67
2021/12/27 19:03:41;;;;;;;;;;;;;;;-142.75;100.00;76302.59;5027671;28;20022;-67
2021/12/27 19:06:07;;;;;;;18.85;11.73;;;;;;;-142.75;100.00;76294.72;5027754;28;19991;-67
2021/12/27 19:08:34;;;;;;;21.92;13.35;;;;;;;-142.75;100.00;76290.78;5029572;28;20499;-67
2021/12/27 19:11:00;;;;;;;18.58;11.73;;;;;;;-142.75;100.00;76286.84;5029325;28;20083;-66
2021/12/27 19:13:26;;;;;;;26.35;15.50;;;;;;;-142.75;100.00;76280.94;5041121;28;20421;-67
2021/12/27 19:15:52;;;;;;;;;;;;;;;-142.75;100.00;76284.88;5049443;28;20033;-66
2021/12/27 19:18:17;;;;;;;18.40;11.10;;;;;;;-142.75;100.00;76280.94;5048077;28;19917;-67
2021/12/27 19:20:42;;;;;;;16.70;11.23;;;;;;;-142.75;100.00;76275.03;5039887;28;20021;-67
2021/12/27 19:23:08;;;;;;;16.02;11.52;;;;;;;-142.75;100.00;76269.13;5038810;28;20025;-66
2021/12/27 19:25:34;;;;;;;18.13;11.30;;;;;;;-142.75;100.00;76271.09;5028414;28;20036;-66
2021/12/27 19:28:00;;;;;;;20.17;11.88;;;;;;;-142.75;100.00;76259.28;5037719;28;20102;-67
2021/12/27 19:30:26;;;;;;;17.75;12.50;;;;;;;-142.75;100.00;76251.41;5035442;28;20031;-67
2021/12/27 19:32:51;;;;;;;;;;;;;;;-142.75;100.00;76251.41;5043049;28;20025;-66
2021/12/27 19:35:21;;;;;;;24.75;13.80;;;;;;;-142.75;100.00;76239.59;5037536;28;19920;-66
2021/12/27 19:37:48;;;;;;;19.73;13.93;;;;;;;-142.75;100.00;76231.72;5037551;28;20547;-67
2021/12/27 19:40:14;;;;;;;26.20;18.58;;;;;;;-142.75;100.00;76243.53;5028063;28;20112;-67
2021/12/27 19:42:39;;;;;;;23.10;13.98;;;;;;;-142.75;100.00;76237.63;5044822;28;20020;-66
2021/12/27 19:45:05;;;;;;;21.88;15.23;;;;;;;-142.75;100.00;76229.75;5048416;28;20031;-67
2021/12/27 19:47:30;;;;;;;24.95;18.45;;;;;;;-142.75;100.00;76235.66;5048195;28;20067;-66
2021/12/27 19:49:55;;;;;;;20.83;16.65;;;;;;;-142.75;100.00;76239.59;5043505;28;20595;-67
2021/12/27 19:52:21;;;;;;;25.85;18.25;;;;;;;-142.75;100.00;76235.66;5027969;28;20021;-66
2021/12/27 19:54:47;;;;;;;26.50;19.90;;;;;;;-142.75;100.00;76233.69;5034217;28;20508;-66
2021/12/27 19:57:12;;;;;;;24.23;16.83;;;;;;;-142.75;100.00;76231.72;5045668;28;20074;-66
2021/12/27 19:59:37;;;;;;;21.00;14.85;;;;;;;-142.75;100.00;76229.75;5047660;28;20032;-66
2021/12/27 20:02:05;;;;;;;20.00;16.45;;;;;;;-142.75;100.00;76233.69;5047644;28;20544;-66
2021/12/27 20:04:31;;;;;;;29.35;21.20;;;;;;;-142.75;100.00;76227.78;5047417;28;20021;-67
2021/12/27 20:06:57;;;;;;;20.00;15.20;;;;;;;-142.75;100.00;76229.75;5047757;28;20028;-67
2021/12/27 20:09:23;;;;;;;21.08;13.70;;;;;;;-142.75;100.00;76223.84;5047807;28;20482;-66
2021/12/27 20:11:48;;;;;;;18.42;13.07;;;;;;;-142.75;100.00;76221.88;5045374;28;20029;-67
2021/12/27 20:14:14;;;;;;;19.52;13.93;;;;;;;-142.75;100.00;76223.84;5026862;28;20041;-66
2021/12/27 20:16:39;;;;;;;19.98;13.88;;;;;;;-142.75;100.00;76215.97;5033614;28;20064;-66
2021/12/27 20:19:05;;;;;;;18.80;14.88;;;;;;;-142.75;100.00;76210.06;5027815;28;20483;-66
2021/12/27 20:21:30;;;;;;;20.13;13.93;;;;;;;-142.75;100.00;76194.34;5026646;28;20083;-68
2021/12/27 20:23:57;;;;;;;17.08;14.10;;;;;;;-142.75;100.00;76188.44;5028009;28;20021;-67
2021/12/27 20:26:24;;;;;;;19.00;14.40;;;;;;;-142.75;100.00;76188.44;5024852;28;20021;-68
2021/12/27 20:28:49;;;;;;;;;;;;;;;-142.75;100.00;76188.44;5027662;28;20028;-68
2021/12/27 20:31:14;;;;;;;21.95;15.82;;;;;;;-142.75;100.00;76192.38;5025951;28;19917;-69
2021/12/27 20:33:39;;;;;;;20.10;14.95;;;;;;;-142.75;100.00;76188.44;5026191;28;20025;-68
2021/12/27 20:36:05;;;;;;;20.48;15.25;;;;;;;-142.75;100.00;76170.72;5026735;28;20064;-67
2021/12/27 20:38:30;;;;;;;23.67;17.45;;;;;;;-142.75;100.00;76172.69;5036486;28;20096;-68
2021/12/27 20:40:56;;;;;;;21.35;16.30;;;;;;;-142.75;100.00;76166.78;5046355;28;20017;-67
2021/12/27 20:43:23;;;;;;;23.77;16.63;;;;;;;-142.75;100.00;76164.81;5034537;28;20372;-68
2021/12/27 20:45:52;;;;;;;23.65;17.20;;;;;;;-142.75;100.00;76162.84;5032550;28;20028;-68
2021/12/27 20:48:18;;;;;;;22.15;17.00;;;;;;;-142.75;100.00;76156.94;5031106;28;20506;-67
2021/12/27 20:50:43;;;;;;;27.15;19.08;;;;;;;-142.75;100.00;76147.09;5031555;28;20037;-67
2021/12/27 20:53:11;;;;;;;25.92;19.35;;;;;;;-142.75;100.00;76133.31;5031663;28;20033;-68
2021/12/27 20:55:37;;;;;;;25.00;18.60;;;;;;;-142.75;100.00;76137.25;5046123;28;20060;-67
2021/12/27 20:58:03;;;;;;;29.50;20.48;;;;;;;-142.75;100.00;76141.19;5044514;28;20470;-68
2021/12/27 21:00:32;;;;;;;28.55;19.58;;;;;;;-142.75;100.00;76147.09;5044580;28;20111;-67
2021/12/27 21:02:58;;;;;;;29.83;20.42;;;;;;;-142.75;100.00;76137.25;5045248;28;20033;-68
2021/12/27 21:05:28;;;;;;;29.60;20.88;;;;;;;-142.75;100.00;76133.31;5045229;28;20509;-67
2021/12/27 21:07:53;;;;;;;28.58;21.05;;;;;;;-142.75;100.00;76125.44;5043961;28;20097;-68
2021/12/27 21:10:19;;;;;;;29.88;20.25;;;;;;;-142.75;100.00;76127.41;5044750;28;20032;-68
2021/12/27 21:12:44;;;;;;;34.75;20.20;;;;;;;-142.75;100.00;76119.53;5045898;28;20029;-68
2021/12/27 21:15:10;;;;;;;33.72;20.33;;;;;;;-142.75;100.00;76117.56;5035800;28;20037;-68
2021/12/27 21:17:36;;;;;;;32.08;21.02;;;;;;;-142.75;100.00;76121.50;5045352;28;20082;-68
2021/12/27 21:20:04;;;;;;;27.90;20.95;;;;;;;-142.75;100.00;76117.56;5044535;28;20490;-68
2021/12/27 21:22:29;;;;;;;31.85;22.52;;;;;;;-142.75;100.00;76115.59;5045326;28;20033;-68
2021/12/27 21:24:54;;;;;;;32.10;21.23;;;;;;;-142.75;100.00;76117.56;5033015;28;20036;-68
2021/12/27 21:27:20;;;;;;;36.43;21.50;;;;;;;-142.75;100.00;76113.63;5028104;28;20645;-68
2021/12/27 21:29:46;;;;;;;39.22;21.80;;;;;;;-142.75;100.00;76101.81;5039692;28;20268;-68
2021/12/27 21:32:12;;;;;;;36.28;22.35;;;;;;;-142.75;100.00;76103.78;5033765;28;20028;-67
2021/12/27 21:34:38;;;;;;;34.80;23.45;;;;;;;-142.75;100.00;76093.94;5044809;28;20064;-67
2021/12/27 21:37:03;;;;;;;;;;;;;;;-142.75;100.00;76093.94;5022992;28;20026;-68
2021/12/27 21:39:28;;;;;;;39.10;22.95;;;;;;;-142.75;100.00;76091.97;5032162;28;19966;-67
2021/12/27 21:41:55;;;;;;;34.58;22.70;;;;;;;-142.75;100.00;76091.97;5030346;28;20124;-68
2021/12/27 21:44:20;;;;;;;44.92;23.60;;;;;;;-142.75;100.00;76086.06;5039298;28;20026;-68
2021/12/27 21:46:45;;;;;;;46.67;24.95;;;;;;;-142.75;100.00;76086.06;5026654;28;20112;-68
2021/12/27 21:49:11;;;;;;;42.13;24.95;;;;;;;-142.75;100.00;76080.16;5044887;28;20494;-68
2021/12/27 21:51:36;;;;;;;41.65;25.80;;;;;;;-142.75;100.00;76080.16;5048018;28;20029;-68
2021/12/27 21:54:03;;;;;;;44.33;25.23;;;;;;;-142.75;100.00;76090.00;5045699;28;20110;-68
2021/12/27 21:56:28;;;;;;;;;;;;;;;-142.75;100.00;76078.19;5039127;28;20047;-68
2021/12/27 21:58:53;;;;;;;39.65;24.17;;;;;;;-142.75;100.00;76086.06;5049146;28;20366;-68
2021/12/27 22:01:18;;;;;;;52.75;25.23;;;;;;;-142.75;100.00;76082.13;5048058;28;20514;-67
2021/12/27 22:03:44;;;;;;;36.10;23.50;;;;;;;-142.75;100.00;76088.03;5030068;28;20045;-68
2021/12/27 22:06:09;;;;;;;39.17;24.20;;;;;;;-142.75;100.00;76097.88;5034604;28;20036;-68
2021/12/27 22:08:35;;;;;;;45.15;24.95;;;;;;;-142.75;100.00;76093.94;5028701;28;20033;-67
2021/12/27 22:11:02;;;;;;;38.53;24.15;;;;;;;-142.75;100.00;76105.75;5028136;28;20025;-68
2021/12/27 22:13:28;;;;;;;37.33;24.80;;;;;;;-142.75;100.00;76105.75;5040842;28;20075;-68
2021/12/27 22:15:53;;;;;;;39.35;25.02;;;;;;;-142.75;100.00;76109.69;5049149;28;20028;-66
2021/12/27 22:18:18;;;;;;;41.70;22.95;;;;;;;-142.75;100.00;76113.63;5045090;28;20033;-67
2021/12/27 22:20:44;;;;;;;40.25;24.60;;;;;;;-142.75;100.00;76111.66;5031269;28;20021;-68
2021/12/27 22:23:09;;;;;;;40.55;23.23;;;;;;;-142.75;100.00;76115.59;5029243;28;20490;-68
2021/12/27 22:25:35;;;;;;;42.42;23.63;;;;;;;-142.75;100.00;76113.63;5035473;28;20033;-67
2021/12/27 22:28:02;;;;;;;40.60;22.48;;;;;;;-142.75;100.00;76127.41;5040327;28;20075;-68
2021/12/27 22:30:27;;;;;;;33.33;21.95;;;;;;;-142.75;100.00;76129.38;5042507;28;20021;-68
2021/12/27 22:32:54;;;;;;;34.40;21.35;;;;;;;-142.75;100.00;76141.19;5032444;28;20471;-68
2021/12/27 22:35:20;;;;;;;34.10;22.27;;;;;;;-142.75;100.00;76141.19;5034623;28;20033;-67
2021/12/27 22:37:45;;;;;;;34.55;21.42;;;;;;;-142.75;100.00;76149.06;5042838;28;20395;-67
2021/12/27 22:40:14;;;;;;;34.08;19.98;;;;;;;-142.75;100.00;76154.97;5038484;28;20055;-68
2021/12/27 22:42:39;;;;;;;29.95;18.15;;;;;;;-142.75;100.00;76158.91;5049977;28;20066;-68
2021/12/27 22:45:08;;;;;;;34.47;19.25;;;;;;;-142.75;100.00;76158.91;5031114;28;20029;-68
2021/12/27 22:47:34;;;;;;;34.05;19.77;;;;;;;-142.75;100.00;76162.84;5040752;28;20041;-67
2021/12/27 22:49:59;;;;;;;31.02;17.88;;;;;;;-142.75;100.00;76168.75;5042714;28;20094;-67
2021/12/27 22:52:24;;;;;;;35.67;17.52;;;;;;;-142.75;100.00;76172.69;5035291;28;20031;-67
2021/12/27 22:54:49;;;;;;;33.50;18.35;;;;;;;-142.75;100.00;76172.69;5037519;28;20033;-68
